sensor_id;sensor_type;location;lat;lon;timestamp;P1;durP1;ratioP1;P2;durP2;ratioP2
6735;SDS011;3405;50.576;12.364;2023-04-09T00:02:12;6.20;;;5.47;;
6735;SDS011;3405;50.576;12.364;2023-04-09T00:04:38;7.60;;;5.60;;
6735;SDS011;3405;50.576;12.364;2023-04-09T00:07:04;6.38;;;5.60;;
6735;SDS011;3405;50.576;12.364;2023-04-09T00:09:30;7.22;;;5.57;;
6735;SDS011;3405;50.576;12.364;2023-04-09T00:11:56;6.40;;;5.55;;
6735;SDS011;3405;50.576;12.364;2023-04-09T00:14:22;7.05;;;6.00;;
6735;SDS011;3405;50.576;12.364;2023-04-09T00:16:48;5.93;;;5.22;;
6735;SDS011;3405;50.576;12.364;2023-04-09T00:19:14;6.28;;;5.10;;
6735;SDS011;3405;50.576;12.364;2023-04-09T00:21:40;5.70;;;5.20;;
6735;SDS011;3405;50.576;12.364;2023-04-09T00:24:06;6.93;;;5.45;;
6735;SDS011;3405;50.576;12.364;2023-04-09T00:26:32;6.53;;;5.50;;
6735;SDS011;3405;50.576;12.364;2023-04-09T00:28:58;6.70;;;5.45;;
6735;SDS011;3405;50.576;12.364;2023-04-09T00:31:24;7.50;;;5.95;;
6735;SDS011;3405;50.576;12.364;2023-04-09T00:33:50;6.00;;;5.40;;
6735;SDS011;3405;50.576;12.364;2023-04-09T00:36:17;7.00;;;5.47;;
6735;SDS011;3405;50.576;12.364;2023-04-09T00:38:43;7.88;;;5.68;;
6735;SDS011;3405;50.576;12.364;2023-04-09T00:41:10;7.90;;;5.93;;
6735;SDS011;3405;50.576;12.364;2023-04-09T00:43:35;6.95;;;6.00;;
6735;SDS011;3405;50.576;12.364;2023-04-09T00:46:01;6.53;;;5.10;;
6735;SDS011;3405;50.576;12.364;2023-04-09T00:48:29;6.28;;;5.68;;
6735;SDS011;3405;50.576;12.364;2023-04-09T00:50:55;6.82;;;5.82;;
6735;SDS011;3405;50.576;12.364;2023-04-09T00:53:21;6.93;;;5.70;;
6735;SDS011;3405;50.576;12.364;2023-04-09T00:55:47;6.13;;;5.43;;
6735;SDS011;3405;50.576;12.364;2023-04-09T00:58:13;7.03;;;5.75;;
6735;SDS011;3405;50.576;12.364;2023-04-09T01:00:39;6.35;;;5.13;;
6735;SDS011;3405;50.576;12.364;2023-04-09T01:03:05;6.28;;;5.47;;
6735;SDS011;3405;50.576;12.364;2023-04-09T01:05:53;7.10;;;5.72;;
6735;SDS011;3405;50.576;12.364;2023-04-09T01:08:31;6.18;;;5.40;;
6735;SDS011;3405;50.576;12.364;2023-04-09T01:13:29;6.72;;;5.40;;
6735;SDS011;3405;50.576;12.364;2023-04-09T01:15:56;6.93;;;5.30;;
6735;SDS011;3405;50.576;12.364;2023-04-09T01:18:28;7.72;;;5.80;;
6735;SDS011;3405;50.576;12.364;2023-04-09T01:21:01;6.28;;;5.13;;
6735;SDS011;3405;50.576;12.364;2023-04-09T01:23:31;7.28;;;5.75;;
6735;SDS011;3405;50.576;12.364;2023-04-09T01:28:44;6.20;;;5.35;;
6735;SDS011;3405;50.576;12.364;2023-04-09T01:31:16;6.40;;;5.43;;
6735;SDS011;3405;50.576;12.364;2023-04-09T01:33:43;6.05;;;5.20;;
6735;SDS011;3405;50.576;12.364;2023-04-09T01:36:09;6.93;;;5.93;;
6735;SDS011;3405;50.576;12.364;2023-04-09T01:38:35;7.03;;;5.72;;
6735;SDS011;3405;50.576;12.364;2023-04-09T01:41:02;6.60;;;5.63;;
6735;SDS011;3405;50.576;12.364;2023-04-09T01:43:29;6.85;;;5.70;;
6735;SDS011;3405;50.576;12.364;2023-04-09T01:45:56;7.38;;;6.00;;
6735;SDS011;3405;50.576;12.364;2023-04-09T01:48:23;7.18;;;5.95;;
6735;SDS011;3405;50.576;12.364;2023-04-09T01:50:50;7.35;;;6.05;;
6735;SDS011;3405;50.576;12.364;2023-04-09T01:53:16;6.28;;;5.68;;
6735;SDS011;3405;50.576;12.364;2023-04-09T01:55:42;7.57;;;5.97;;
6735;SDS011;3405;50.576;12.364;2023-04-09T01:58:08;7.60;;;5.85;;
6735;SDS011;3405;50.576;12.364;2023-04-09T02:00:35;7.53;;;6.00;;
6735;SDS011;3405;50.576;12.364;2023-04-09T02:03:22;7.90;;;6.07;;
6735;SDS011;3405;50.576;12.364;2023-04-09T02:05:54;7.47;;;5.82;;
6735;SDS011;3405;50.576;12.364;2023-04-09T02:08:22;7.43;;;6.07;;
6735;SDS011;3405;50.576;12.364;2023-04-09T02:10:49;6.85;;;5.72;;
6735;SDS011;3405;50.576;12.364;2023-04-09T02:13:18;7.07;;;6.15;;
6735;SDS011;3405;50.576;12.364;2023-04-09T02:15:44;6.88;;;5.95;;
6735;SDS011;3405;50.576;12.364;2023-04-09T02:18:19;7.63;;;6.05;;
6735;SDS011;3405;50.576;12.364;2023-04-09T02:20:45;6.80;;;6.10;;
6735;SDS011;3405;50.576;12.364;2023-04-09T02:23:11;7.20;;;5.90;;
6735;SDS011;3405;50.576;12.364;2023-04-09T02:25:37;7.53;;;6.28;;
6735;SDS011;3405;50.576;12.364;2023-04-09T02:28:03;7.85;;;6.00;;
6735;SDS011;3405;50.576;12.364;2023-04-09T02:30:29;7.63;;;6.10;;
6735;SDS011;3405;50.576;12.364;2023-04-09T02:32:55;8.05;;;6.05;;
6735;SDS011;3405;50.576;12.364;2023-04-09T02:35:21;8.57;;;6.00;;
6735;SDS011;3405;50.576;12.364;2023-04-09T02:37:46;7.38;;;5.88;;
6735;SDS011;3405;50.576;12.364;2023-04-09T02:40:12;7.30;;;6.15;;
6735;SDS011;3405;50.576;12.364;2023-04-09T02:42:38;7.55;;;6.22;;
6735;SDS011;3405;50.576;12.364;2023-04-09T02:45:04;7.78;;;6.43;;
6735;SDS011;3405;50.576;12.364;2023-04-09T02:47:30;7.65;;;6.30;;
6735;SDS011;3405;50.576;12.364;2023-04-09T02:49:56;7.45;;;6.32;;
6735;SDS011;3405;50.576;12.364;2023-04-09T02:52:22;7.35;;;6.13;;
6735;SDS011;3405;50.576;12.364;2023-04-09T02:54:49;7.05;;;5.55;;
6735;SDS011;3405;50.576;12.364;2023-04-09T02:57:15;7.78;;;5.90;;
6735;SDS011;3405;50.576;12.364;2023-04-09T02:59:41;8.90;;;6.45;;
6735;SDS011;3405;50.576;12.364;2023-04-09T03:02:07;8.60;;;6.63;;
6735;SDS011;3405;50.576;12.364;2023-04-09T03:04:33;8.27;;;6.30;;
6735;SDS011;3405;50.576;12.364;2023-04-09T03:06:59;8.32;;;6.20;;
6735;SDS011;3405;50.576;12.364;2023-04-09T03:09:25;7.47;;;6.43;;
6735;SDS011;3405;50.576;12.364;2023-04-09T03:11:51;8.27;;;6.57;;
6735;SDS011;3405;50.576;12.364;2023-04-09T03:14:17;8.27;;;5.82;;
6735;SDS011;3405;50.576;12.364;2023-04-09T03:16:43;8.60;;;6.68;;
6735;SDS011;3405;50.576;12.364;2023-04-09T03:19:09;7.55;;;6.13;;
6735;SDS011;3405;50.576;12.364;2023-04-09T03:21:34;7.93;;;6.20;;
6735;SDS011;3405;50.576;12.364;2023-04-09T03:24:00;7.30;;;6.32;;
6735;SDS011;3405;50.576;12.364;2023-04-09T03:26:26;7.80;;;6.32;;
6735;SDS011;3405;50.576;12.364;2023-04-09T03:28:52;8.43;;;6.38;;
6735;SDS011;3405;50.576;12.364;2023-04-09T03:31:18;6.65;;;5.85;;
6735;SDS011;3405;50.576;12.364;2023-04-09T03:33:44;8.25;;;6.25;;
6735;SDS011;3405;50.576;12.364;2023-04-09T03:36:10;7.45;;;6.05;;
6735;SDS011;3405;50.576;12.364;2023-04-09T03:38:36;7.38;;;6.20;;
6735;SDS011;3405;50.576;12.364;2023-04-09T03:41:02;8.30;;;6.28;;
6735;SDS011;3405;50.576;12.364;2023-04-09T03:43:28;6.93;;;6.05;;
6735;SDS011;3405;50.576;12.364;2023-04-09T03:45:53;8.20;;;6.50;;
6735;SDS011;3405;50.576;12.364;2023-04-09T03:48:20;8.52;;;6.28;;
6735;SDS011;3405;50.576;12.364;2023-04-09T03:50:46;7.55;;;6.45;;
6735;SDS011;3405;50.576;12.364;2023-04-09T03:53:11;8.20;;;5.93;;
6735;SDS011;3405;50.576;12.364;2023-04-09T03:55:37;7.50;;;6.05;;
6735;SDS011;3405;50.576;12.364;2023-04-09T03:58:03;6.88;;;5.50;;
6735;SDS011;3405;50.576;12.364;2023-04-09T04:00:29;7.47;;;5.85;;
6735;SDS011;3405;50.576;12.364;2023-04-09T04:02:55;7.32;;;6.20;;
6735;SDS011;3405;50.576;12.364;2023-04-09T04:05:22;7.15;;;5.82;;
6735;SDS011;3405;50.576;12.364;2023-04-09T04:07:49;7.20;;;5.50;;
6735;SDS011;3405;50.576;12.364;2023-04-09T04:10:15;7.18;;;6.03;;
6735;SDS011;3405;50.576;12.364;2023-04-09T04:12:41;7.22;;;5.65;;
6735;SDS011;3405;50.576;12.364;2023-04-09T04:15:07;6.97;;;6.00;;
6735;SDS011;3405;50.576;12.364;2023-04-09T04:17:33;6.47;;;5.50;;
6735;SDS011;3405;50.576;12.364;2023-04-09T04:19:59;5.38;;;4.65;;
6735;SDS011;3405;50.576;12.364;2023-04-09T04:22:25;6.82;;;5.53;;
6735;SDS011;3405;50.576;12.364;2023-04-09T04:24:51;7.43;;;5.97;;
6735;SDS011;3405;50.576;12.364;2023-04-09T04:27:17;8.05;;;5.75;;
6735;SDS011;3405;50.576;12.364;2023-04-09T04:29:43;6.88;;;5.90;;
6735;SDS011;3405;50.576;12.364;2023-04-09T04:32:09;6.93;;;5.68;;
6735;SDS011;3405;50.576;12.364;2023-04-09T04:34:35;7.10;;;5.25;;
6735;SDS011;3405;50.576;12.364;2023-04-09T04:37:01;5.13;;;4.50;;
6735;SDS011;3405;50.576;12.364;2023-04-09T04:39:29;5.82;;;5.22;;
6735;SDS011;3405;50.576;12.364;2023-04-09T04:41:55;6.13;;;5.30;;
6735;SDS011;3405;50.576;12.364;2023-04-09T04:44:21;6.40;;;5.32;;
6735;SDS011;3405;50.576;12.364;2023-04-09T04:46:47;5.70;;;5.05;;
6735;SDS011;3405;50.576;12.364;2023-04-09T04:49:12;7.25;;;5.57;;
6735;SDS011;3405;50.576;12.364;2023-04-09T04:51:38;6.45;;;5.75;;
6735;SDS011;3405;50.576;12.364;2023-04-09T04:54:04;6.55;;;5.32;;
6735;SDS011;3405;50.576;12.364;2023-04-09T04:56:30;6.55;;;5.47;;
6735;SDS011;3405;50.576;12.364;2023-04-09T04:58:56;6.32;;;5.45;;
6735;SDS011;3405;50.576;12.364;2023-04-09T05:01:22;6.22;;;5.45;;
6735;SDS011;3405;50.576;12.364;2023-04-09T05:03:48;6.80;;;5.53;;
6735;SDS011;3405;50.576;12.364;2023-04-09T05:06:14;5.88;;;5.10;;
6735;SDS011;3405;50.576;12.364;2023-04-09T05:08:39;4.78;;;4.30;;
6735;SDS011;3405;50.576;12.364;2023-04-09T05:11:05;6.10;;;4.90;;
6735;SDS011;3405;50.576;12.364;2023-04-09T05:13:31;5.45;;;4.95;;
6735;SDS011;3405;50.576;12.364;2023-04-09T05:15:57;5.43;;;4.93;;
6735;SDS011;3405;50.576;12.364;2023-04-09T05:18:23;5.38;;;4.82;;
6735;SDS011;3405;50.576;12.364;2023-04-09T05:20:49;5.18;;;4.45;;
6735;SDS011;3405;50.576;12.364;2023-04-09T05:23:15;5.40;;;4.88;;
6735;SDS011;3405;50.576;12.364;2023-04-09T05:25:41;5.75;;;4.85;;
6735;SDS011;3405;50.576;12.364;2023-04-09T05:28:07;6.50;;;4.85;;
6735;SDS011;3405;50.576;12.364;2023-04-09T05:30:35;5.18;;;4.45;;
6735;SDS011;3405;50.576;12.364;2023-04-09T05:33:01;5.40;;;4.80;;
6735;SDS011;3405;50.576;12.364;2023-04-09T05:35:27;5.30;;;4.80;;
6735;SDS011;3405;50.576;12.364;2023-04-09T05:37:52;5.10;;;4.60;;
6735;SDS011;3405;50.576;12.364;2023-04-09T05:40:18;5.35;;;4.65;;
6735;SDS011;3405;50.576;12.364;2023-04-09T05:42:44;4.82;;;4.28;;
6735;SDS011;3405;50.576;12.364;2023-04-09T05:45:10;5.18;;;4.57;;
6735;SDS011;3405;50.576;12.364;2023-04-09T05:47:36;4.90;;;4.40;;
6735;SDS011;3405;50.576;12.364;2023-04-09T05:50:02;5.72;;;4.53;;
6735;SDS011;3405;50.576;12.364;2023-04-09T05:52:29;5.18;;;4.68;;
6735;SDS011;3405;50.576;12.364;2023-04-09T05:54:55;5.47;;;4.45;;
6735;SDS011;3405;50.576;12.364;2023-04-09T05:57:21;5.38;;;4.57;;
6735;SDS011;3405;50.576;12.364;2023-04-09T05:59:46;4.93;;;4.43;;
6735;SDS011;3405;50.576;12.364;2023-04-09T06:02:12;5.10;;;4.30;;
6735;SDS011;3405;50.576;12.364;2023-04-09T06:04:38;5.03;;;4.40;;
6735;SDS011;3405;50.576;12.364;2023-04-09T06:07:04;4.78;;;4.20;;
6735;SDS011;3405;50.576;12.364;2023-04-09T06:09:30;4.85;;;4.30;;
6735;SDS011;3405;50.576;12.364;2023-04-09T06:11:56;4.97;;;4.10;;
6735;SDS011;3405;50.576;12.364;2023-04-09T06:14:22;5.50;;;4.35;;
6735;SDS011;3405;50.576;12.364;2023-04-09T06:16:48;5.20;;;4.43;;
6735;SDS011;3405;50.576;12.364;2023-04-09T06:19:17;4.78;;;4.28;;
6735;SDS011;3405;50.576;12.364;2023-04-09T06:21:43;4.30;;;3.90;;
6735;SDS011;3405;50.576;12.364;2023-04-09T06:24:09;4.65;;;4.15;;
6735;SDS011;3405;50.576;12.364;2023-04-09T06:26:35;5.50;;;4.30;;
6735;SDS011;3405;50.576;12.364;2023-04-09T06:29:01;4.60;;;4.20;;
6735;SDS011;3405;50.576;12.364;2023-04-09T06:31:27;5.07;;;4.22;;
6735;SDS011;3405;50.576;12.364;2023-04-09T06:33:53;4.40;;;4.00;;
6735;SDS011;3405;50.576;12.364;2023-04-09T06:36:19;4.32;;;3.92;;
6735;SDS011;3405;50.576;12.364;2023-04-09T06:38:45;4.90;;;4.20;;
6735;SDS011;3405;50.576;12.364;2023-04-09T06:41:11;5.70;;;4.20;;
6735;SDS011;3405;50.576;12.364;2023-04-09T06:43:38;4.68;;;3.85;;
6735;SDS011;3405;50.576;12.364;2023-04-09T06:46:04;5.13;;;4.32;;
6735;SDS011;3405;50.576;12.364;2023-04-09T06:48:30;4.30;;;3.92;;
6735;SDS011;3405;50.576;12.364;2023-04-09T06:50:56;4.97;;;3.75;;
6735;SDS011;3405;50.576;12.364;2023-04-09T06:53:22;4.18;;;3.78;;
6735;SDS011;3405;50.576;12.364;2023-04-09T06:55:48;4.57;;;4.18;;
6735;SDS011;3405;50.576;12.364;2023-04-09T06:58:14;4.38;;;3.97;;
6735;SDS011;3405;50.576;12.364;2023-04-09T07:00:40;4.07;;;3.67;;
6735;SDS011;3405;50.576;12.364;2023-04-09T07:03:06;7.97;;;4.10;;
6735;SDS011;3405;50.576;12.364;2023-04-09T07:05:33;6.00;;;3.95;;
6735;SDS011;3405;50.576;12.364;2023-04-09T07:07:58;4.75;;;3.70;;
6735;SDS011;3405;50.576;12.364;2023-04-09T07:10:25;5.80;;;3.78;;
6735;SDS011;3405;50.576;12.364;2023-04-09T07:12:51;6.55;;;3.83;;
6735;SDS011;3405;50.576;12.364;2023-04-09T07:15:17;10.85;;;4.55;;
6735;SDS011;3405;50.576;12.364;2023-04-09T07:17:43;8.65;;;4.20;;
6735;SDS011;3405;50.576;12.364;2023-04-09T07:20:09;9.18;;;4.70;;
6735;SDS011;3405;50.576;12.364;2023-04-09T07:22:35;9.38;;;4.55;;
6735;SDS011;3405;50.576;12.364;2023-04-09T07:25:00;6.82;;;4.60;;
6735;SDS011;3405;50.576;12.364;2023-04-09T07:27:27;8.55;;;4.78;;
6735;SDS011;3405;50.576;12.364;2023-04-09T07:29:53;11.60;;;4.18;;
6735;SDS011;3405;50.576;12.364;2023-04-09T07:32:20;8.02;;;3.95;;
6735;SDS011;3405;50.576;12.364;2023-04-09T07:34:46;7.45;;;4.05;;
6735;SDS011;3405;50.576;12.364;2023-04-09T07:37:12;6.13;;;4.32;;
6735;SDS011;3405;50.576;12.364;2023-04-09T07:39:38;5.68;;;4.05;;
6735;SDS011;3405;50.576;12.364;2023-04-09T07:42:04;5.57;;;3.80;;
6735;SDS011;3405;50.576;12.364;2023-04-09T07:44:33;7.97;;;4.30;;
6735;SDS011;3405;50.576;12.364;2023-04-09T07:47:00;7.53;;;4.20;;
6735;SDS011;3405;50.576;12.364;2023-04-09T07:49:26;4.95;;;3.88;;
6735;SDS011;3405;50.576;12.364;2023-04-09T07:51:52;6.85;;;4.07;;
6735;SDS011;3405;50.576;12.364;2023-04-09T07:54:18;7.90;;;4.20;;
6735;SDS011;3405;50.576;12.364;2023-04-09T07:56:47;10.60;;;4.07;;
6735;SDS011;3405;50.576;12.364;2023-04-09T07:59:13;9.93;;;3.90;;
6735;SDS011;3405;50.576;12.364;2023-04-09T08:01:42;7.63;;;4.10;;
6735;SDS011;3405;50.576;12.364;2023-04-09T08:04:08;10.32;;;4.05;;
6735;SDS011;3405;50.576;12.364;2023-04-09T08:06:34;9.15;;;4.22;;
6735;SDS011;3405;50.576;12.364;2023-04-09T08:09:01;10.80;;;4.22;;
6735;SDS011;3405;50.576;12.364;2023-04-09T08:11:27;8.70;;;5.38;;
6735;SDS011;3405;50.576;12.364;2023-04-09T08:13:54;10.60;;;5.25;;
6735;SDS011;3405;50.576;12.364;2023-04-09T08:16:21;7.18;;;5.28;;
6735;SDS011;3405;50.576;12.364;2023-04-09T08:18:48;6.50;;;4.80;;
6735;SDS011;3405;50.576;12.364;2023-04-09T08:21:14;8.55;;;5.20;;
6735;SDS011;3405;50.576;12.364;2023-04-09T08:23:40;7.63;;;5.10;;
6735;SDS011;3405;50.576;12.364;2023-04-09T08:26:06;8.35;;;5.00;;
6735;SDS011;3405;50.576;12.364;2023-04-09T08:28:32;8.38;;;5.35;;
6735;SDS011;3405;50.576;12.364;2023-04-09T08:30:58;8.80;;;5.30;;
6735;SDS011;3405;50.576;12.364;2023-04-09T08:33:24;7.28;;;4.97;;
6735;SDS011;3405;50.576;12.364;2023-04-09T08:35:50;6.28;;;5.05;;
6735;SDS011;3405;50.576;12.364;2023-04-09T08:38:17;10.45;;;5.03;;
6735;SDS011;3405;50.576;12.364;2023-04-09T08:40:43;6.07;;;4.80;;
6735;SDS011;3405;50.576;12.364;2023-04-09T08:43:09;9.82;;;5.50;;
6735;SDS011;3405;50.576;12.364;2023-04-09T08:45:39;6.65;;;4.88;;
6735;SDS011;3405;50.576;12.364;2023-04-09T08:48:05;7.38;;;5.43;;
6735;SDS011;3405;50.576;12.364;2023-04-09T08:50:33;7.32;;;4.97;;
6735;SDS011;3405;50.576;12.364;2023-04-09T08:53:04;7.53;;;5.22;;
6735;SDS011;3405;50.576;12.364;2023-04-09T08:55:30;5.60;;;4.95;;
6735;SDS011;3405;50.576;12.364;2023-04-09T08:57:58;6.88;;;5.32;;
6735;SDS011;3405;50.576;12.364;2023-04-09T09:00:24;8.25;;;5.07;;
6735;SDS011;3405;50.576;12.364;2023-04-09T09:03:08;6.78;;;5.15;;
6735;SDS011;3405;50.576;12.364;2023-04-09T09:05:40;6.22;;;4.90;;
6735;SDS011;3405;50.576;12.364;2023-04-09T09:08:10;5.72;;;5.05;;
6735;SDS011;3405;50.576;12.364;2023-04-09T09:10:40;5.15;;;4.68;;
6735;SDS011;3405;50.576;12.364;2023-04-09T09:13:17;7.78;;;4.85;;
6735;SDS011;3405;50.576;12.364;2023-04-09T09:15:43;6.78;;;4.82;;
6735;SDS011;3405;50.576;12.364;2023-04-09T09:18:11;5.45;;;4.68;;
6735;SDS011;3405;50.576;12.364;2023-04-09T09:20:37;7.70;;;5.72;;
6735;SDS011;3405;50.576;12.364;2023-04-09T09:23:03;6.97;;;4.85;;
6735;SDS011;3405;50.576;12.364;2023-04-09T09:25:31;8.05;;;4.25;;
6735;SDS011;3405;50.576;12.364;2023-04-09T09:28:05;6.18;;;4.70;;
6735;SDS011;3405;50.576;12.364;2023-04-09T09:30:31;5.32;;;4.38;;
6735;SDS011;3405;50.576;12.364;2023-04-09T09:33:03;7.43;;;3.97;;
6735;SDS011;3405;50.576;12.364;2023-04-09T09:35:30;7.68;;;4.53;;
6735;SDS011;3405;50.576;12.364;2023-04-09T09:38:11;6.72;;;4.72;;
6735;SDS011;3405;50.576;12.364;2023-04-09T09:40:37;6.75;;;4.53;;
6735;SDS011;3405;50.576;12.364;2023-04-09T09:43:03;11.57;;;4.55;;
6735;SDS011;3405;50.576;12.364;2023-04-09T09:45:29;6.40;;;4.65;;
6735;SDS011;3405;50.576;12.364;2023-04-09T09:47:55;7.60;;;4.38;;
6735;SDS011;3405;50.576;12.364;2023-04-09T09:50:22;5.30;;;4.20;;
6735;SDS011;3405;50.576;12.364;2023-04-09T09:52:53;6.43;;;4.70;;
6735;SDS011;3405;50.576;12.364;2023-04-09T09:55:23;5.53;;;3.88;;
6735;SDS011;3405;50.576;12.364;2023-04-09T09:57:51;6.00;;;4.05;;
6735;SDS011;3405;50.576;12.364;2023-04-09T10:00:17;7.85;;;4.10;;
6735;SDS011;3405;50.576;12.364;2023-04-09T10:02:47;4.95;;;4.03;;
6735;SDS011;3405;50.576;12.364;2023-04-09T10:05:17;6.80;;;4.00;;
6735;SDS011;3405;50.576;12.364;2023-04-09T10:07:43;6.35;;;4.45;;
6735;SDS011;3405;50.576;12.364;2023-04-09T10:10:10;6.70;;;4.18;;
6735;SDS011;3405;50.576;12.364;2023-04-09T10:12:36;6.43;;;4.03;;
6735;SDS011;3405;50.576;12.364;2023-04-09T10:15:05;5.75;;;4.00;;
6735;SDS011;3405;50.576;12.364;2023-04-09T10:17:31;6.22;;;4.30;;
6735;SDS011;3405;50.576;12.364;2023-04-09T10:20:06;4.80;;;3.85;;
6735;SDS011;3405;50.576;12.364;2023-04-09T10:22:35;4.57;;;4.00;;
6735;SDS011;3405;50.576;12.364;2023-04-09T10:25:03;5.15;;;4.00;;
6735;SDS011;3405;50.576;12.364;2023-04-09T10:27:30;6.00;;;3.65;;
6735;SDS011;3405;50.576;12.364;2023-04-09T10:29:56;4.32;;;3.63;;
6735;SDS011;3405;50.576;12.364;2023-04-09T10:32:24;5.05;;;4.25;;
6735;SDS011;3405;50.576;12.364;2023-04-09T10:34:52;6.28;;;4.10;;
6735;SDS011;3405;50.576;12.364;2023-04-09T10:37:21;7.15;;;3.83;;
6735;SDS011;3405;50.576;12.364;2023-04-09T10:39:48;5.85;;;3.80;;
6735;SDS011;3405;50.576;12.364;2023-04-09T10:42:18;5.50;;;3.83;;
6735;SDS011;3405;50.576;12.364;2023-04-09T10:44:46;6.43;;;4.20;;
6735;SDS011;3405;50.576;12.364;2023-04-09T10:47:31;8.40;;;4.72;;
6735;SDS011;3405;50.576;12.364;2023-04-09T10:49:59;5.00;;;4.47;;
6735;SDS011;3405;50.576;12.364;2023-04-09T10:52:39;9.23;;;4.68;;
6735;SDS011;3405;50.576;12.364;2023-04-09T10:55:08;5.35;;;4.25;;
6735;SDS011;3405;50.576;12.364;2023-04-09T10:57:35;7.28;;;4.70;;
6735;SDS011;3405;50.576;12.364;2023-04-09T11:00:01;6.47;;;4.25;;
6735;SDS011;3405;50.576;12.364;2023-04-09T11:07:39;6.40;;;4.38;;
6735;SDS011;3405;50.576;12.364;2023-04-09T11:10:05;4.57;;;4.18;;
6735;SDS011;3405;50.576;12.364;2023-04-09T11:12:32;3.92;;;3.53;;
6735;SDS011;3405;50.576;12.364;2023-04-09T11:14:58;4.82;;;4.10;;
6735;SDS011;3405;50.576;12.364;2023-04-09T11:17:24;5.25;;;4.22;;
6735;SDS011;3405;50.576;12.364;2023-04-09T11:19:50;6.57;;;4.30;;
6735;SDS011;3405;50.576;12.364;2023-04-09T11:22:16;7.22;;;4.75;;
6735;SDS011;3405;50.576;12.364;2023-04-09T11:24:42;4.60;;;4.10;;
6735;SDS011;3405;50.576;12.364;2023-04-09T11:27:08;4.80;;;4.22;;
6735;SDS011;3405;50.576;12.364;2023-04-09T11:29:35;3.75;;;3.45;;
6735;SDS011;3405;50.576;12.364;2023-04-09T11:32:01;5.35;;;4.10;;
6735;SDS011;3405;50.576;12.364;2023-04-09T11:34:29;4.60;;;3.92;;
6735;SDS011;3405;50.576;12.364;2023-04-09T11:36:55;8.98;;;4.40;;
6735;SDS011;3405;50.576;12.364;2023-04-09T11:39:23;4.30;;;3.85;;
6735;SDS011;3405;50.576;12.364;2023-04-09T11:41:49;5.60;;;4.20;;
6735;SDS011;3405;50.576;12.364;2023-04-09T11:44:15;4.43;;;3.90;;
6735;SDS011;3405;50.576;12.364;2023-04-09T11:46:41;5.70;;;4.20;;
6735;SDS011;3405;50.576;12.364;2023-04-09T11:49:07;7.53;;;3.83;;
6735;SDS011;3405;50.576;12.364;2023-04-09T11:51:33;4.78;;;4.18;;
6735;SDS011;3405;50.576;12.364;2023-04-09T11:54:00;6.13;;;4.18;;
6735;SDS011;3405;50.576;12.364;2023-04-09T11:56:29;5.38;;;4.25;;
6735;SDS011;3405;50.576;12.364;2023-04-09T11:58:55;7.35;;;4.45;;
6735;SDS011;3405;50.576;12.364;2023-04-09T12:01:21;10.63;;;4.38;;
6735;SDS011;3405;50.576;12.364;2023-04-09T12:03:51;6.82;;;4.40;;
6735;SDS011;3405;50.576;12.364;2023-04-09T12:06:18;5.65;;;4.32;;
6735;SDS011;3405;50.576;12.364;2023-04-09T12:08:45;9.10;;;4.38;;
6735;SDS011;3405;50.576;12.364;2023-04-09T12:11:13;8.05;;;4.90;;
6735;SDS011;3405;50.576;12.364;2023-04-09T12:13:39;9.05;;;4.90;;
6735;SDS011;3405;50.576;12.364;2023-04-09T12:16:10;4.90;;;4.28;;
6735;SDS011;3405;50.576;12.364;2023-04-09T12:18:36;5.78;;;4.00;;
6735;SDS011;3405;50.576;12.364;2023-04-09T12:21:02;8.27;;;4.65;;
6735;SDS011;3405;50.576;12.364;2023-04-09T12:23:29;6.68;;;4.80;;
6735;SDS011;3405;50.576;12.364;2023-04-09T12:25:58;7.15;;;4.30;;
6735;SDS011;3405;50.576;12.364;2023-04-09T12:28:25;5.50;;;4.10;;
6735;SDS011;3405;50.576;12.364;2023-04-09T12:30:51;6.78;;;4.45;;
6735;SDS011;3405;50.576;12.364;2023-04-09T12:33:18;5.63;;;4.20;;
6735;SDS011;3405;50.576;12.364;2023-04-09T12:35:44;6.93;;;4.10;;
6735;SDS011;3405;50.576;12.364;2023-04-09T12:38:10;8.35;;;4.38;;
6735;SDS011;3405;50.576;12.364;2023-04-09T12:40:36;7.95;;;4.50;;
6735;SDS011;3405;50.576;12.364;2023-04-09T12:43:02;6.85;;;4.90;;
6735;SDS011;3405;50.576;12.364;2023-04-09T12:45:28;8.80;;;4.68;;
6735;SDS011;3405;50.576;12.364;2023-04-09T12:47:54;8.68;;;5.22;;
6735;SDS011;3405;50.576;12.364;2023-04-09T12:50:20;9.88;;;4.72;;
6735;SDS011;3405;50.576;12.364;2023-04-09T12:52:46;6.75;;;4.55;;
6735;SDS011;3405;50.576;12.364;2023-04-09T12:55:12;7.65;;;4.70;;
6735;SDS011;3405;50.576;12.364;2023-04-09T12:57:41;6.30;;;4.80;;
6735;SDS011;3405;50.576;12.364;2023-04-09T13:00:08;7.15;;;4.85;;
6735;SDS011;3405;50.576;12.364;2023-04-09T13:02:34;7.07;;;4.85;;
6735;SDS011;3405;50.576;12.364;2023-04-09T13:05:00;8.23;;;4.50;;
6735;SDS011;3405;50.576;12.364;2023-04-09T13:07:26;9.35;;;5.30;;
6735;SDS011;3405;50.576;12.364;2023-04-09T13:09:53;9.68;;;4.65;;
6735;SDS011;3405;50.576;12.364;2023-04-09T13:12:19;10.40;;;4.70;;
6735;SDS011;3405;50.576;12.364;2023-04-09T13:14:45;7.55;;;5.20;;
6735;SDS011;3405;50.576;12.364;2023-04-09T13:17:12;8.57;;;4.95;;
6735;SDS011;3405;50.576;12.364;2023-04-09T13:19:38;8.43;;;4.78;;
6735;SDS011;3405;50.576;12.364;2023-04-09T13:22:04;7.28;;;5.00;;
6735;SDS011;3405;50.576;12.364;2023-04-09T13:24:32;6.10;;;4.43;;
6735;SDS011;3405;50.576;12.364;2023-04-09T13:26:58;8.40;;;4.53;;
6735;SDS011;3405;50.576;12.364;2023-04-09T13:29:24;6.18;;;4.80;;
6735;SDS011;3405;50.576;12.364;2023-04-09T13:31:53;8.98;;;5.03;;
6735;SDS011;3405;50.576;12.364;2023-04-09T13:34:19;6.65;;;4.68;;
6735;SDS011;3405;50.576;12.364;2023-04-09T13:36:45;6.20;;;5.00;;
6735;SDS011;3405;50.576;12.364;2023-04-09T13:39:11;7.10;;;4.50;;
6735;SDS011;3405;50.576;12.364;2023-04-09T13:41:37;5.28;;;4.47;;
6735;SDS011;3405;50.576;12.364;2023-04-09T13:44:03;7.95;;;5.53;;
6735;SDS011;3405;50.576;12.364;2023-04-09T13:46:29;7.18;;;4.50;;
6735;SDS011;3405;50.576;12.364;2023-04-09T13:48:55;7.20;;;5.03;;
6735;SDS011;3405;50.576;12.364;2023-04-09T13:51:21;7.47;;;4.78;;
6735;SDS011;3405;50.576;12.364;2023-04-09T13:53:47;7.05;;;5.22;;
6735;SDS011;3405;50.576;12.364;2023-04-09T13:56:14;8.90;;;5.00;;
6735;SDS011;3405;50.576;12.364;2023-04-09T13:58:40;6.07;;;4.63;;
6735;SDS011;3405;50.576;12.364;2023-04-09T14:01:07;7.72;;;5.32;;
6735;SDS011;3405;50.576;12.364;2023-04-09T14:03:33;7.03;;;5.07;;
6735;SDS011;3405;50.576;12.364;2023-04-09T14:05:59;9.48;;;4.93;;
6735;SDS011;3405;50.576;12.364;2023-04-09T14:08:25;7.53;;;5.00;;
6735;SDS011;3405;50.576;12.364;2023-04-09T14:10:51;5.32;;;4.53;;
6735;SDS011;3405;50.576;12.364;2023-04-09T14:13:17;5.65;;;4.82;;
6735;SDS011;3405;50.576;12.364;2023-04-09T14:15:43;6.47;;;4.57;;
6735;SDS011;3405;50.576;12.364;2023-04-09T14:18:10;7.78;;;4.93;;
6735;SDS011;3405;50.576;12.364;2023-04-09T14:20:35;7.25;;;4.47;;
6735;SDS011;3405;50.576;12.364;2023-04-09T14:23:02;6.07;;;4.68;;
6735;SDS011;3405;50.576;12.364;2023-04-09T14:25:28;6.45;;;4.55;;
6735;SDS011;3405;50.576;12.364;2023-04-09T14:27:54;7.97;;;5.15;;
6735;SDS011;3405;50.576;12.364;2023-04-09T14:30:21;5.57;;;4.50;;
6735;SDS011;3405;50.576;12.364;2023-04-09T14:32:46;6.30;;;4.80;;
6735;SDS011;3405;50.576;12.364;2023-04-09T14:35:12;5.32;;;4.35;;
6735;SDS011;3405;50.576;12.364;2023-04-09T14:37:38;7.80;;;4.63;;
6735;SDS011;3405;50.576;12.364;2023-04-09T14:40:05;7.22;;;4.60;;
6735;SDS011;3405;50.576;12.364;2023-04-09T14:42:31;6.70;;;4.50;;
6735;SDS011;3405;50.576;12.364;2023-04-09T14:44:57;4.72;;;3.95;;
6735;SDS011;3405;50.576;12.364;2023-04-09T14:47:23;6.03;;;4.18;;
6735;SDS011;3405;50.576;12.364;2023-04-09T14:49:49;5.65;;;4.57;;
6735;SDS011;3405;50.576;12.364;2023-04-09T14:52:15;8.10;;;4.75;;
6735;SDS011;3405;50.576;12.364;2023-04-09T14:54:41;6.85;;;5.15;;
6735;SDS011;3405;50.576;12.364;2023-04-09T14:57:07;5.68;;;4.50;;
6735;SDS011;3405;50.576;12.364;2023-04-09T14:59:33;5.10;;;4.60;;
6735;SDS011;3405;50.576;12.364;2023-04-09T15:01:59;5.78;;;4.60;;
6735;SDS011;3405;50.576;12.364;2023-04-09T15:04:25;5.22;;;4.63;;
6735;SDS011;3405;50.576;12.364;2023-04-09T15:06:52;7.78;;;4.97;;
6735;SDS011;3405;50.576;12.364;2023-04-09T15:09:17;7.10;;;4.80;;